ダッカ の空港の天気 - METARとTAF

シャージャラル国際空港(ダッカ) ( VGHS / DAC ) - バングラデシュ ダッカ
飛行場実況気象(Metar)
観測時間04/21 06:00 BDT (04/21 00:00 UTC)
風向・風速東 4m/s
視程4000m
天気現象煙霧
全天の4割程度の雲 雲底高度 370m
全天の8割程度の雲 雲底高度 3050m
気温27℃
湿度84%
気圧1007hPa
METARVGHS 210000Z 10008KT 4000 HZ SCT012 BKN100 27/24 Q1007 NOSIG
過去の天気等 Google飛行場航空写真 Wunderground天気予報

過去48時間のMETAR

飛行場予報(TAF)
発表時間: 4/21 05:00 BDT (4/20 23:00 UTC)
予報対象時間: 21日6時 BDT ~ 22日12時 BDT
風向・風速南南東 4m/s
視程3,000m
天気現象煙霧
全天の4割程度の雲 雲底高度 430m
全天の8割程度の雲 雲底高度 3,050m
21日9時 BDT ~ 21日11時 BDT に徐々に
風向・風速南 6m/s
視程3,500m
天気現象煙霧
全天の4割程度の雲 雲底高度 430m
全天の8割程度の雲 雲底高度 3,050m
21日9時 BDT ~ 21日21時 BDT に一時的に
風向・風速西北西 13m/s 瞬間風速 18m/s
視程1,500m
22日2時 BDT ~ 22日4時 BDT に徐々に
風向・風速南東 3m/s
視程3,000m
天気現象煙霧
全天の4割程度の雲 雲底高度 460m
全天の4割程度の雲 雲底高度 3,050m
22日9時 BDT ~ 22日11時 BDT に徐々に
風向・風速南南西 5m/s
視程3,500m
天気現象煙霧
全天の4割程度の雲 雲底高度 460m
全天の4割程度の雲 雲底高度 3,050m
TAF VGHS 202300Z 2100/2206 16008KT 3000 HZ SCT014 BKN100
BECMG 2103/2105 18012KT 3500 HZ SCT014 BKN100
TEMPO 2103/2115 29025G35KT 1500 RA/TSRA BKN007 FEW025CB OVC090
BECMG 2120/2122 14006KT 3000 HZ SCT015 SCT100
BECMG 2203/2205 20010KT 3500 HZ SCT015 SCT100